UAE1MY DAAG-OMDB
Flight info
| Callsign | UAE1MY |
|---|---|
| Flight time | N/A |
| Altitude | 35000 |
| Route | BABOR1C BABOR UA31 CSO UW254 DIMAO UL874 OMENI DCT AMIBO DCT ARLOS UN4 SALUN DCT MMA DCT FYM DCT WEJ L604 GAS L308 DAROR P559 VUTEB |
| Aircraft | B77W/H-SDE1E2E3FGHIJ2J3J4J5M1RWXY/LB1D1 |
Departure
| Time | N/A |
|---|---|
| Airport | Houari Boumediene Airport (DAAG) |
Arrival
| Time | 2026-04-22 18:41 |
|---|---|
| Airport | Dubai International Airport (OMDB) |
| Time | Latitude | Longitude | Altitude | Speed | Heading |
|---|---|---|---|---|---|
| 2026-04-22 18:02 | 26.00812 | 53.29538 | 32255 ft | 517 kts | 114° |
| 2026-04-22 18:03 | 25.99457 | 53.33213 | 31806 ft | 511 kts | 114° |
| 2026-04-22 18:03 | 25.98110 | 53.36860 | 31347 ft | 506 kts | 114° |
| 2026-04-22 18:03 | 25.96781 | 53.40457 | 30910 ft | 501 kts | 114° |
| 2026-04-22 18:03 | 25.95461 | 53.44028 | 30474 ft | 496 kts | 114° |
| 2026-04-22 18:04 | 25.94152 | 53.47567 | 30024 ft | 491 kts | 114° |
| 2026-04-22 18:04 | 25.92869 | 53.51058 | 29534 ft | 487 kts | 113° |
| 2026-04-22 18:04 | 25.91664 | 53.54509 | 29049 ft | 483 kts | 112° |
| 2026-04-22 18:04 | 25.90487 | 53.57985 | 28586 ft | 478 kts | 112° |
| 2026-04-22 18:05 | 25.89326 | 53.61421 | 28128 ft | 473 kts | 112° |
| 2026-04-22 18:05 | 25.88166 | 53.64825 | 27668 ft | 468 kts | 112° |
| 2026-04-22 18:05 | 25.87013 | 53.68179 | 27229 ft | 463 kts | 112° |
| 2026-04-22 18:05 | 25.85867 | 53.71500 | 26794 ft | 458 kts | 112° |
| 2026-04-22 18:06 | 25.84724 | 53.74792 | 26361 ft | 454 kts | 113° |
| 2026-04-22 18:06 | 25.83590 | 53.78044 | 25941 ft | 450 kts | 113° |
| 2026-04-22 18:06 | 25.82461 | 53.81278 | 25520 ft | 446 kts | 113° |
| 2026-04-22 18:06 | 25.81359 | 53.84430 | 25108 ft | 442 kts | 113° |
| 2026-04-22 18:07 | 25.80250 | 53.87607 | 24690 ft | 439 kts | 113° |
| 2026-04-22 18:07 | 25.79149 | 53.90757 | 24274 ft | 436 kts | 113° |
| 2026-04-22 18:07 | 25.78053 | 53.93891 | 23849 ft | 434 kts | 113° |
| 2026-04-22 18:07 | 25.76962 | 53.97010 | 23424 ft | 432 kts | 114° |
| 2026-04-22 18:08 | 25.75881 | 54.00098 | 22955 ft | 429 kts | 114° |
| 2026-04-22 18:08 | 25.74828 | 54.03186 | 22513 ft | 426 kts | 112° |
| 2026-04-22 18:08 | 25.73868 | 54.06275 | 22085 ft | 422 kts | 110° |
| 2026-04-22 18:08 | 25.72945 | 54.09351 | 21670 ft | 419 kts | 110° |
| 2026-04-22 18:09 | 25.72031 | 54.12402 | 21256 ft | 415 kts | 110° |
| 2026-04-22 18:09 | 25.71123 | 54.15397 | 20853 ft | 412 kts | 111° |
| 2026-04-22 18:09 | 25.70206 | 54.18393 | 20460 ft | 409 kts | 111° |
| 2026-04-22 18:09 | 25.69289 | 54.21365 | 20054 ft | 406 kts | 111° |
| 2026-04-22 18:10 | 25.68377 | 54.24315 | 19646 ft | 403 kts | 111° |
| 2026-04-22 18:10 | 25.67468 | 54.27249 | 19241 ft | 400 kts | 111° |
| 2026-04-22 18:10 | 25.66566 | 54.30162 | 18843 ft | 398 kts | 111° |
| 2026-04-22 18:10 | 25.65667 | 54.33059 | 18428 ft | 396 kts | 111° |
| 2026-04-22 18:11 | 25.64776 | 54.35945 | 18007 ft | 395 kts | 111° |
| 2026-04-22 18:11 | 25.63896 | 54.38821 | 17558 ft | 392 kts | 111° |
| 2026-04-22 18:11 | 25.63025 | 54.41672 | 17132 ft | 389 kts | 111° |
| 2026-04-22 18:11 | 25.62159 | 54.44505 | 16717 ft | 386 kts | 111° |
| 2026-04-22 18:12 | 25.61298 | 54.47314 | 16313 ft | 383 kts | 111° |
| 2026-04-22 18:12 | 25.60455 | 54.50065 | 15915 ft | 380 kts | 111° |
| 2026-04-22 18:12 | 25.59880 | 54.51937 | 15654 ft | 378 kts | 111° |
| 2026-04-22 18:12 | 25.58764 | 54.55572 | 15124 ft | 372 kts | 110° |
| 2026-04-22 18:13 | 25.58163 | 54.58349 | 14725 ft | 370 kts | 99° |
| 2026-04-22 18:13 | 25.58097 | 54.61196 | 14344 ft | 370 kts | 88° |
| 2026-04-22 18:13 | 25.58433 | 54.64007 | 13956 ft | 366 kts | 82° |
| 2026-04-22 18:13 | 25.58823 | 54.66781 | 13537 ft | 364 kts | 83° |
| 2026-04-22 18:14 | 25.59181 | 54.69559 | 13108 ft | 362 kts | 84° |
| 2026-04-22 18:14 | 25.59528 | 54.72313 | 12710 ft | 360 kts | 84° |
| 2026-04-22 18:14 | 25.59872 | 54.75047 | 12421 ft | 354 kts | 84° |
| 2026-04-22 18:14 | 25.60209 | 54.77710 | 12275 ft | 344 kts | 84° |
| 2026-04-22 18:15 | 25.60426 | 54.79432 | 12153 ft | 338 kts | 84° |
| 2026-04-22 18:15 | 25.60853 | 54.82821 | 11973 ft | 326 kts | 84° |
| 2026-04-22 18:15 | 25.61145 | 54.85267 | 11826 ft | 313 kts | 88° |
| 2026-04-22 18:15 | 25.60898 | 54.87553 | 11679 ft | 289 kts | 116° |
| 2026-04-22 18:16 | 25.60064 | 54.89497 | 11614 ft | 277 kts | 119° |
| 2026-04-22 18:16 | 25.59271 | 54.91469 | 11519 ft | 288 kts | 117° |
| 2026-04-22 18:16 | 25.58479 | 54.93524 | 11394 ft | 291 kts | 117° |
| 2026-04-22 18:16 | 25.57682 | 54.95582 | 11273 ft | 290 kts | 117° |
| 2026-04-22 18:17 | 25.56885 | 54.97624 | 11130 ft | 288 kts | 117° |
| 2026-04-22 18:17 | 25.56087 | 54.99654 | 11017 ft | 287 kts | 117° |
| 2026-04-22 18:17 | 25.55290 | 55.01677 | 10911 ft | 285 kts | 117° |
| 2026-04-22 18:17 | 25.54491 | 55.03677 | 10765 ft | 284 kts | 120° |
| 2026-04-22 18:18 | 25.53561 | 55.05597 | 10623 ft | 282 kts | 124° |
| 2026-04-22 18:18 | 25.52565 | 55.07469 | 10485 ft | 282 kts | 124° |
| 2026-04-22 18:18 | 25.51566 | 55.09338 | 10340 ft | 282 kts | 124° |
| 2026-04-22 18:18 | 25.50576 | 55.11209 | 10188 ft | 282 kts | 124° |
| 2026-04-22 18:19 | 25.49596 | 55.13078 | 10037 ft | 282 kts | 124° |
| 2026-04-22 18:19 | 25.48612 | 55.14967 | 9892 ft | 282 kts | 124° |
| 2026-04-22 18:19 | 25.47646 | 55.16824 | 9739 ft | 281 kts | 124° |
| 2026-04-22 18:19 | 25.46670 | 55.18702 | 9593 ft | 281 kts | 124° |
| 2026-04-22 18:20 | 25.45656 | 55.20522 | 9390 ft | 274 kts | 131° |
| 2026-04-22 18:20 | 25.44423 | 55.22104 | 9277 ft | 270 kts | 137° |
| 2026-04-22 18:20 | 25.43132 | 55.23610 | 9114 ft | 269 kts | 137° |
| 2026-04-22 18:20 | 25.41848 | 55.25116 | 8983 ft | 269 kts | 137° |
| 2026-04-22 18:21 | 25.40579 | 55.26635 | 8843 ft | 269 kts | 136° |
| 2026-04-22 18:21 | 25.39317 | 55.28167 | 8698 ft | 269 kts | 136° |
| 2026-04-22 18:21 | 25.38063 | 55.29700 | 8566 ft | 269 kts | 136° |
| 2026-04-22 18:21 | 25.36824 | 55.31219 | 8405 ft | 262 kts | 136° |
| 2026-04-22 18:22 | 25.35603 | 55.32668 | 8245 ft | 249 kts | 143° |
| 2026-04-22 18:22 | 25.34170 | 55.33645 | 8132 ft | 239 kts | 159° |
| 2026-04-22 18:22 | 25.32657 | 55.34454 | 8012 ft | 244 kts | 157° |
| 2026-04-22 18:22 | 25.31146 | 55.35318 | 7891 ft | 245 kts | 156° |
| 2026-04-22 18:23 | 25.29636 | 55.36193 | 7753 ft | 245 kts | 156° |
| 2026-04-22 18:23 | 25.28130 | 55.37069 | 7632 ft | 245 kts | 156° |
| 2026-04-22 18:23 | 25.26643 | 55.37936 | 7500 ft | 244 kts | 156° |
| 2026-04-22 18:24 | 25.23656 | 55.39684 | 7238 ft | 241 kts | 155° |
| 2026-04-22 18:24 | 25.22178 | 55.40549 | 7097 ft | 240 kts | 155° |
| 2026-04-22 18:24 | 25.19251 | 55.42261 | 6853 ft | 236 kts | 155° |
| 2026-04-22 18:25 | 25.17804 | 55.43108 | 6740 ft | 234 kts | 155° |
| 2026-04-22 18:25 | 25.16368 | 55.43947 | 6649 ft | 233 kts | 155° |
| 2026-04-22 18:25 | 25.14941 | 55.44782 | 6559 ft | 231 kts | 155° |
| 2026-04-22 18:26 | 25.12060 | 55.46462 | 6363 ft | 237 kts | 155° |
| 2026-04-22 18:26 | 25.10764 | 55.47570 | 6222 ft | 241 kts | 127° |
| 2026-04-22 18:26 | 25.09960 | 55.49156 | 6170 ft | 239 kts | 122° |
| 2026-04-22 18:26 | 25.09103 | 55.50755 | 6060 ft | 245 kts | 124° |
| 2026-04-22 18:27 | 25.08202 | 55.52359 | 5953 ft | 246 kts | 124° |
| 2026-04-22 18:27 | 25.07307 | 55.53951 | 5835 ft | 242 kts | 124° |
| 2026-04-22 18:27 | 25.06427 | 55.55518 | 5727 ft | 238 kts | 124° |
| 2026-04-22 18:27 | 25.05560 | 55.57062 | 5623 ft | 237 kts | 124° |
| 2026-04-22 18:28 | 25.04690 | 55.58613 | 5540 ft | 238 kts | 124° |
| 2026-04-22 18:28 | 25.04113 | 55.59643 | 5472 ft | 238 kts | 124° |
| 2026-04-22 18:28 | 25.03247 | 55.61206 | 5366 ft | 239 kts | 124° |
| 2026-04-22 18:28 | 25.02381 | 55.62773 | 5274 ft | 239 kts | 123° |
| 2026-04-22 18:29 | 25.01510 | 55.64348 | 5168 ft | 240 kts | 124° |
| 2026-04-22 18:29 | 25.00357 | 55.66427 | 5038 ft | 240 kts | 123° |
| 2026-04-22 18:29 | 24.99483 | 55.67990 | 4937 ft | 240 kts | 123° |
| 2026-04-22 18:29 | 24.98889 | 55.69051 | 4871 ft | 239 kts | 123° |
| 2026-04-22 18:30 | 24.98028 | 55.70585 | 4773 ft | 238 kts | 124° |
| 2026-04-22 18:30 | 24.96297 | 55.73677 | 4565 ft | 236 kts | 123° |
| 2026-04-22 18:30 | 24.95440 | 55.75207 | 4453 ft | 233 kts | 124° |
| 2026-04-22 18:31 | 24.94768 | 55.76799 | 4328 ft | 230 kts | 99° |
| 2026-04-22 18:31 | 24.94990 | 55.78544 | 4275 ft | 237 kts | 63° |
| 2026-04-22 18:31 | 24.96095 | 55.79897 | 4203 ft | 242 kts | 33° |
| 2026-04-22 18:31 | 24.97550 | 55.80832 | 4095 ft | 241 kts | 24° |
| 2026-04-22 18:32 | 24.99157 | 55.81196 | 3943 ft | 236 kts | 348° |
| 2026-04-22 18:32 | 25.00582 | 55.80446 | 3882 ft | 226 kts | 313° |
| 2026-04-22 18:32 | 25.01537 | 55.79083 | 3797 ft | 226 kts | 301° |
| 2026-04-22 18:32 | 25.02399 | 55.77612 | 3711 ft | 231 kts | 301° |
| 2026-04-22 18:33 | 25.03269 | 55.76125 | 3606 ft | 229 kts | 301° |
| 2026-04-22 18:33 | 25.04109 | 55.74647 | 3491 ft | 226 kts | 300° |
| 2026-04-22 18:33 | 25.04918 | 55.73200 | 3389 ft | 224 kts | 300° |
| 2026-04-22 18:33 | 25.05730 | 55.71739 | 3300 ft | 223 kts | 300° |
| 2026-04-22 18:34 | 25.06544 | 55.70272 | 3215 ft | 224 kts | 300° |
| 2026-04-22 18:34 | 25.07358 | 55.68803 | 3113 ft | 221 kts | 300° |
| 2026-04-22 18:34 | 25.08145 | 55.67387 | 3001 ft | 211 kts | 300° |
| 2026-04-22 18:34 | 25.08882 | 55.66060 | 2960 ft | 197 kts | 300° |
| 2026-04-22 18:35 | 25.09599 | 55.64763 | 2887 ft | 198 kts | 300° |
| 2026-04-22 18:35 | 25.10316 | 55.63469 | 2814 ft | 197 kts | 300° |
| 2026-04-22 18:35 | 25.11031 | 55.62183 | 2812 ft | 197 kts | 301° |
| 2026-04-22 18:35 | 25.11748 | 55.60889 | 2806 ft | 198 kts | 300° |
| 2026-04-22 18:36 | 25.12466 | 55.59593 | 2795 ft | 198 kts | 301° |
| 2026-04-22 18:36 | 25.13176 | 55.58311 | 2811 ft | 196 kts | 300° |
| 2026-04-22 18:36 | 25.13886 | 55.57032 | 2810 ft | 196 kts | 301° |
| 2026-04-22 18:36 | 25.14595 | 55.55749 | 2799 ft | 196 kts | 300° |
| 2026-04-22 18:37 | 25.15303 | 55.54474 | 2833 ft | 194 kts | 300° |
| 2026-04-22 18:37 | 25.16014 | 55.53190 | 2778 ft | 197 kts | 301° |
| 2026-04-22 18:37 | 25.16737 | 55.51885 | 2516 ft | 199 kts | 301° |
| 2026-04-22 18:37 | 25.17453 | 55.50588 | 2262 ft | 197 kts | 301° |
| 2026-04-22 18:38 | 25.18158 | 55.49317 | 2001 ft | 188 kts | 302° |
| 2026-04-22 18:38 | 25.18812 | 55.48136 | 1785 ft | 171 kts | 302° |
| 2026-04-22 18:38 | 25.19404 | 55.47067 | 1565 ft | 157 kts | 302° |
| 2026-04-22 18:39 | 25.20511 | 55.45066 | 1201 ft | 152 kts | 302° |
| 2026-04-22 18:39 | 25.21061 | 55.44075 | 1013 ft | 151 kts | 302° |
| 2026-04-22 18:39 | 25.21605 | 55.43091 | 808 ft | 149 kts | 302° |
| 2026-04-22 18:39 | 25.22134 | 55.42134 | 641 ft | 147 kts | 302° |
| 2026-04-22 18:40 | 25.22662 | 55.41182 | 456 ft | 143 kts | 302° |
| 2026-04-22 18:40 | 25.23164 | 55.40230 | 243 ft | 144 kts | 301° |
| 2026-04-22 18:40 | 25.23676 | 55.39295 | 59 ft | 141 kts | 303° |
| 2026-04-22 18:40 | 25.24178 | 55.38409 | 27 ft | 125 kts | 301° |
| 2026-04-22 18:41 | 25.24559 | 55.37727 | 27 ft | 76 kts | 302° |
| 2026-04-22 18:41 | 25.24732 | 55.37414 | 27 ft | 32 kts | 296° |
| 2026-04-22 18:41 | 25.24778 | 55.37238 | 27 ft | 14 kts | 276° |
| 2026-04-22 18:41 | 25.24782 | 55.37149 | 27 ft | 9 kts | 272° |
| 2026-04-22 18:42 | 25.24784 | 55.37079 | 26 ft | 9 kts | 272° |
| 2026-04-22 18:42 | 25.24787 | 55.37005 | 27 ft | 10 kts | 274° |
| 2026-04-22 18:42 | 25.24804 | 55.36933 | 27 ft | 6 kts | 290° |
| 2026-04-22 18:42 | 25.24815 | 55.36899 | 27 ft | 5 kts | 290° |
| 2026-04-22 18:43 | 25.24828 | 55.36860 | 27 ft | 6 kts | 290° |
| 2026-04-22 18:43 | 25.24844 | 55.36816 | 27 ft | 6 kts | 291° |
| 2026-04-22 18:43 | 25.24854 | 55.36785 | 27 ft | 0 kts | 288° |
| 2026-04-22 18:44 | 25.24854 | 55.36783 | 27 ft | 2 kts | 285° |
| 2026-04-22 18:44 | 25.24839 | 55.36729 | 28 ft | 9 kts | 237° |
| 2026-04-22 18:44 | 25.24805 | 55.36692 | 25 ft | 5 kts | 220° |
| 2026-04-22 18:44 | 25.24804 | 55.36691 | 25 ft | 0 kts | 220° |
| 2026-04-22 18:45 | 25.24796 | 55.36679 | 24 ft | 7 kts | 239° |
| 2026-04-22 18:45 | 25.24794 | 55.36634 | 27 ft | 4 kts | 276° |
| 2026-04-22 18:45 | 25.24783 | 55.36606 | 27 ft | 4 kts | 226° |
| 2026-04-22 18:45 | 25.24760 | 55.36588 | 27 ft | 4 kts | 215° |
| 2026-04-22 18:46 | 25.24738 | 55.36571 | 27 ft | 0 kts | 214° |
| 2026-04-22 18:46 | 25.24730 | 55.36565 | 27 ft | 0 kts | 214° |